sensor_id;sensor_type;location;lat;lon;timestamp;pressure;altitude;pressure_sealevel;temperature;humidity
22311;BME280;11323;49.610;11.016;2023-04-29T00:04:39;97728.13;;;16.66;59.57
22311;BME280;11323;49.610;11.016;2023-04-29T00:09:40;97729.38;;;16.71;59.08
22311;BME280;11323;49.610;11.016;2023-04-29T00:14:40;97724.09;;;16.64;58.87
22311;BME280;11323;49.610;11.016;2023-04-29T00:19:42;97726.50;;;16.65;58.82
22311;BME280;11323;49.610;11.016;2023-04-29T00:24:43;97725.09;;;16.63;59.00
22311;BME280;11323;49.610;11.016;2023-04-29T00:29:43;97714.13;;;16.59;59.11
22311;BME280;11323;49.610;11.016;2023-04-29T00:34:44;97720.81;;;16.62;58.92
22311;BME280;11323;49.610;11.016;2023-04-29T00:39:46;97731.16;;;16.63;59.08
22311;BME280;11323;49.610;11.016;2023-04-29T00:44:47;97724.47;;;16.61;59.23
22311;BME280;11323;49.610;11.016;2023-04-29T00:49:48;97712.69;;;16.57;59.28
22311;BME280;11323;49.610;11.016;2023-04-29T00:54:49;97725.25;;;16.61;59.08
22311;BME280;11323;49.610;11.016;2023-04-29T00:59:51;97720.41;;;16.58;59.20
22311;BME280;11323;49.610;11.016;2023-04-29T01:04:51;97723.22;;;16.57;59.27
22311;BME280;11323;49.610;11.016;2023-04-29T01:15:11;97726.47;;;16.59;58.84
22311;BME280;11323;49.610;11.016;2023-04-29T01:20:16;97739.81;;;16.57;59.02
22311;BME280;11323;49.610;11.016;2023-04-29T01:25:17;97725.25;;;16.55;58.89
22311;BME280;11323;49.610;11.016;2023-04-29T01:30:56;97718.34;;;16.54;58.97
22311;BME280;11323;49.610;11.016;2023-04-29T01:36:30;97723.63;;;16.54;58.96
22311;BME280;11323;49.610;11.016;2023-04-29T01:41:44;97718.72;;;16.50;58.87
22311;BME280;11323;49.610;11.016;2023-04-29T01:46:56;97711.84;;;16.49;58.96
22311;BME280;11323;49.610;11.016;2023-04-29T01:52:04;97720.38;;;16.51;58.66
22311;BME280;11323;49.610;11.016;2023-04-29T01:57:06;97722.38;;;16.49;58.91
22311;BME280;11323;49.610;11.016;2023-04-29T02:02:24;97723.16;;;16.50;59.05
22311;BME280;11323;49.610;11.016;2023-04-29T02:07:33;97726.81;;;16.49;58.99
22311;BME280;11323;49.610;11.016;2023-04-29T02:12:34;97724.38;;;16.47;58.96
22311;BME280;11323;49.610;11.016;2023-04-29T02:17:35;97719.09;;;16.47;59.04
22311;BME280;11323;49.610;11.016;2023-04-29T02:22:36;97733.25;;;16.46;58.67
22311;BME280;11323;49.610;11.016;2023-04-29T02:27:36;97720.31;;;16.45;59.04
22311;BME280;11323;49.610;11.016;2023-04-29T02:32:38;97723.16;;;16.43;59.05
22311;BME280;11323;49.610;11.016;2023-04-29T02:37:38;97719.88;;;16.41;58.68
22311;BME280;11323;49.610;11.016;2023-04-29T02:42:38;97723.53;;;16.40;58.67
22311;BME280;11323;49.610;11.016;2023-04-29T02:47:39;97715.81;;;16.39;58.50
22311;BME280;11323;49.610;11.016;2023-04-29T02:52:39;97724.53;;;16.39;58.72
22311;BME280;11323;49.610;11.016;2023-04-29T02:57:41;97730.59;;;16.40;58.99
22311;BME280;11323;49.610;11.016;2023-04-29T03:02:42;97728.78;;;16.40;58.72
22311;BME280;11323;49.610;11.016;2023-04-29T03:07:42;97740.94;;;16.41;58.78
22311;BME280;11323;49.610;11.016;2023-04-29T03:12:43;97723.91;;;16.37;58.63
22311;BME280;11323;49.610;11.016;2023-04-29T03:17:53;97737.28;;;16.42;58.83
22311;BME280;11323;49.610;11.016;2023-04-29T03:23:04;97721.22;;;16.30;58.85
22311;BME280;11323;49.610;11.016;2023-04-29T03:28:06;97744.56;;;16.40;58.54
22311;BME280;11323;49.610;11.016;2023-04-29T03:33:07;97737.66;;;16.39;58.91
22311;BME280;11323;49.610;11.016;2023-04-29T03:38:11;97748.19;;;16.39;58.81
22311;BME280;11323;49.610;11.016;2023-04-29T03:43:13;97749.81;;;16.40;58.98
22311;BME280;11323;49.610;11.016;2023-04-29T03:48:21;97753.81;;;16.36;58.62
22311;BME280;11323;49.610;11.016;2023-04-29T03:53:22;97750.56;;;16.34;58.70
22311;BME280;11323;49.610;11.016;2023-04-29T03:58:23;97752.19;;;16.35;58.70
22311;BME280;11323;49.610;11.016;2023-04-29T04:03:25;97744.72;;;16.32;58.88
22311;BME280;11323;49.610;11.016;2023-04-29T04:08:30;97751.41;;;16.34;58.63
22311;BME280;11323;49.610;11.016;2023-04-29T04:13:45;97754.19;;;16.26;58.61
22311;BME280;11323;49.610;11.016;2023-04-29T04:18:46;97768.38;;;16.32;59.06
22311;BME280;11323;49.610;11.016;2023-04-29T04:23:47;97779.91;;;16.31;58.92
22311;BME280;11323;49.610;11.016;2023-04-29T04:28:55;97784.16;;;16.32;58.74
22311;BME280;11323;49.610;11.016;2023-04-29T04:34:07;97781.53;;;16.32;58.85
22311;BME280;11323;49.610;11.016;2023-04-29T04:39:08;97781.06;;;16.28;58.59
22311;BME280;11323;49.610;11.016;2023-04-29T04:44:09;97789.78;;;16.29;58.57
22311;BME280;11323;49.610;11.016;2023-04-29T04:49:29;97794.22;;;16.28;58.85
22311;BME280;11323;49.610;11.016;2023-04-29T04:54:31;97801.31;;;16.28;58.89
22311;BME280;11323;49.610;11.016;2023-04-29T04:59:41;97795.41;;;16.26;59.04
22311;BME280;11323;49.610;11.016;2023-04-29T05:04:42;97803.94;;;16.28;58.69
22311;BME280;11323;49.610;11.016;2023-04-29T05:09:45;97803.94;;;16.28;58.88
22311;BME280;11323;49.610;11.016;2023-04-29T05:14:45;97802.88;;;16.22;58.76
22311;BME280;11323;49.610;11.016;2023-04-29T05:19:47;97812.03;;;16.26;59.11
22311;BME280;11323;49.610;11.016;2023-04-29T05:24:47;97801.03;;;16.23;58.77
22311;BME280;11323;49.610;11.016;2023-04-29T05:29:50;97803.44;;;16.17;58.87
22311;BME280;11323;49.610;11.016;2023-04-29T05:34:51;97820.44;;;16.21;58.86
22311;BME280;11323;49.610;11.016;2023-04-29T05:39:54;97803.44;;;16.17;58.96
22311;BME280;11323;49.610;11.016;2023-04-29T05:44:56;97819.44;;;16.23;58.90
22311;BME280;11323;49.610;11.016;2023-04-29T05:49:56;97830.16;;;16.21;58.82
22311;BME280;11323;49.610;11.016;2023-04-29T05:54:57;97830.38;;;16.19;58.73
22311;BME280;11323;49.610;11.016;2023-04-29T05:59:58;97835.34;;;16.14;58.87
22311;BME280;11323;49.610;11.016;2023-04-29T06:04:59;97841.47;;;16.21;59.71
22311;BME280;11323;49.610;11.016;2023-04-29T06:10:11;97847.63;;;16.29;60.22
22311;BME280;11323;49.610;11.016;2023-04-29T06:15:16;97851.31;;;16.34;60.47
22311;BME280;11323;49.610;11.016;2023-04-29T06:20:17;97858.22;;;16.35;60.23
22311;BME280;11323;49.610;11.016;2023-04-29T06:25:19;97859.28;;;16.41;60.20
22311;BME280;11323;49.610;11.016;2023-04-29T06:30:21;97872.44;;;16.41;60.73
22311;BME280;11323;49.610;11.016;2023-04-29T06:35:25;97875.69;;;16.43;60.25
22311;BME280;11323;49.610;11.016;2023-04-29T06:40:44;97869.16;;;16.39;60.33
22311;BME280;11323;49.610;11.016;2023-04-29T06:46:17;97869.59;;;16.43;60.43
22311;BME280;11323;49.610;11.016;2023-04-29T06:51:28;97885.81;;;16.46;60.58
22311;BME280;11323;49.610;11.016;2023-04-29T06:56:35;97876.28;;;16.45;60.27
22311;BME280;11323;49.610;11.016;2023-04-29T07:01:42;97885.81;;;16.46;60.36
22311;BME280;11323;49.610;11.016;2023-04-29T07:06:43;97897.22;;;16.54;60.43
22311;BME280;11323;49.610;11.016;2023-04-29T07:11:46;97905.13;;;16.54;60.23
22311;BME280;11323;49.610;11.016;2023-04-29T07:16:47;97900.47;;;16.56;60.31
22311;BME280;11323;49.610;11.016;2023-04-29T07:21:51;97895.41;;;16.54;60.21
22311;BME280;11323;49.610;11.016;2023-04-29T07:26:52;97905.94;;;16.54;60.19
22311;BME280;11323;49.610;11.016;2023-04-29T07:31:58;97896.16;;;16.48;60.18
22311;BME280;11323;49.610;11.016;2023-04-29T07:37:00;97911.56;;;16.51;60.06
22311;BME280;11323;49.610;11.016;2023-04-29T07:42:01;97915.44;;;16.55;60.12
22311;BME280;11323;49.610;11.016;2023-04-29T07:47:02;97907.94;;;16.52;59.75
22311;BME280;11323;49.610;11.016;2023-04-29T07:52:06;97910.13;;;16.48;59.85
22311;BME280;11323;49.610;11.016;2023-04-29T07:57:09;97921.91;;;16.52;60.04
22311;BME280;11323;49.610;11.016;2023-04-29T08:02:10;97929.53;;;16.47;59.99
22311;BME280;11323;49.610;11.016;2023-04-29T08:07:11;97922.66;;;16.46;59.87
22311;BME280;11323;49.610;11.016;2023-04-29T08:12:12;97935.78;;;16.46;59.77
22311;BME280;11323;49.610;11.016;2023-04-29T08:17:14;97946.16;;;16.48;59.82
22311;BME280;11323;49.610;11.016;2023-04-29T08:22:15;97955.84;;;16.47;60.03
22311;BME280;11323;49.610;11.016;2023-04-29T08:27:18;97954.28;;;16.53;60.40
22311;BME280;11323;49.610;11.016;2023-04-29T08:32:21;97964.88;;;16.60;60.78
22311;BME280;11323;49.610;11.016;2023-04-29T08:37:28;97964.50;;;16.63;60.80
22311;BME280;11323;49.610;11.016;2023-04-29T08:42:34;97967.78;;;16.65;60.90
22311;BME280;11323;49.610;11.016;2023-04-29T08:47:46;97965.31;;;16.63;60.88
22311;BME280;11323;49.610;11.016;2023-04-29T08:52:46;97989.13;;;16.77;61.12
22311;BME280;11323;49.610;11.016;2023-04-29T08:57:53;97984.06;;;16.75;60.91
22311;BME280;11323;49.610;11.016;2023-04-29T09:02:59;98001.72;;;16.81;60.95
22311;BME280;11323;49.610;11.016;2023-04-29T09:08:01;98003.16;;;16.84;61.37
22311;BME280;11323;49.610;11.016;2023-04-29T09:13:03;98017.38;;;16.90;61.42
22311;BME280;11323;49.610;11.016;2023-04-29T09:18:06;98002.88;;;16.94;61.05
22311;BME280;11323;49.610;11.016;2023-04-29T09:23:08;98007.56;;;16.98;60.91
22311;BME280;11323;49.610;11.016;2023-04-29T09:28:15;98015.16;;;17.08;61.01
22311;BME280;11323;49.610;11.016;2023-04-29T09:33:18;98020.88;;;17.12;61.57
22311;BME280;11323;49.610;11.016;2023-04-29T09:38:21;98017.47;;;17.18;60.92
22311;BME280;11323;49.610;11.016;2023-04-29T09:43:22;98001.00;;;17.09;61.27
22311;BME280;11323;49.610;11.016;2023-04-29T09:48:30;98010.53;;;17.10;60.69
22311;BME280;11323;49.610;11.016;2023-04-29T09:53:33;98018.16;;;17.05;60.67
22311;BME280;11323;49.610;11.016;2023-04-29T09:58:37;98020.00;;;17.05;60.65
22311;BME280;11323;49.610;11.016;2023-04-29T10:03:40;98011.41;;;16.96;60.17
22311;BME280;11323;49.610;11.016;2023-04-29T10:08:45;98024.81;;;17.01;60.60
22311;BME280;11323;49.610;11.016;2023-04-29T10:13:50;98026.06;;;17.05;60.28
22311;BME280;11323;49.610;11.016;2023-04-29T10:18:53;98020.81;;;17.05;60.13
22311;BME280;11323;49.610;11.016;2023-04-29T10:23:56;98017.09;;;17.00;60.27
22311;BME280;11323;49.610;11.016;2023-04-29T10:28:58;98034.97;;;17.04;60.10
22311;BME280;11323;49.610;11.016;2023-04-29T10:33:59;98032.09;;;16.99;59.87
22311;BME280;11323;49.610;11.016;2023-04-29T10:39:02;98010.56;;;16.95;59.61
22311;BME280;11323;49.610;11.016;2023-04-29T10:44:05;98023.63;;;17.04;59.59
22311;BME280;11323;49.610;11.016;2023-04-29T10:49:06;98029.50;;;17.06;60.49
22311;BME280;11323;49.610;11.016;2023-04-29T10:59:15;98033.41;;;17.10;61.25
22311;BME280;11323;49.610;11.016;2023-04-29T11:04:20;98026.13;;;17.12;61.31
22311;BME280;11323;49.610;11.016;2023-04-29T11:09:31;98023.72;;;17.17;60.87
22311;BME280;11323;49.610;11.016;2023-04-29T11:19:47;98033.53;;;17.23;61.09
22311;BME280;11323;49.610;11.016;2023-04-29T11:24:51;98038.59;;;17.25;61.07
22311;BME280;11323;49.610;11.016;2023-04-29T11:29:54;98044.28;;;17.28;61.17
22311;BME280;11323;49.610;11.016;2023-04-29T11:40:14;98043.13;;;17.31;60.53
22311;BME280;11323;49.610;11.016;2023-04-29T11:45:17;98056.28;;;17.31;60.41
22311;BME280;11323;49.610;11.016;2023-04-29T11:50:17;98062.78;;;17.35;60.81
22311;BME280;11323;49.610;11.016;2023-04-29T11:55:19;98070.94;;;17.40;60.72
22311;BME280;11323;49.610;11.016;2023-04-29T12:00:20;98077.66;;;17.43;60.84
22311;BME280;11323;49.610;11.016;2023-04-29T12:05:22;98071.56;;;17.42;60.88
22311;BME280;11323;49.610;11.016;2023-04-29T12:10:24;98076.69;;;17.51;61.17
22311;BME280;11323;49.610;11.016;2023-04-29T12:15:28;98082.41;;;17.54;61.25
22311;BME280;11323;49.610;11.016;2023-04-29T12:20:29;98071.84;;;17.54;60.96
22311;BME280;11323;49.610;11.016;2023-04-29T12:25:31;98068.28;;;17.62;60.84
22311;BME280;11323;49.610;11.016;2023-04-29T12:30:36;98079.00;;;17.60;61.16
22311;BME280;11323;49.610;11.016;2023-04-29T12:35:36;98075.56;;;17.60;61.02
22311;BME280;11323;49.610;11.016;2023-04-29T12:40:38;98080.03;;;17.59;57.72
22311;BME280;11323;49.610;11.016;2023-04-29T12:45:41;98082.16;;;17.49;57.75
22311;BME280;11323;49.610;11.016;2023-04-29T12:50:48;98077.47;;;17.44;58.43
22311;BME280;11323;49.610;11.016;2023-04-29T12:55:52;98078.22;;;17.38;58.69
22311;BME280;11323;49.610;11.016;2023-04-29T13:00:53;98086.97;;;17.45;59.01
22311;BME280;11323;49.610;11.016;2023-04-29T13:05:54;98079.69;;;17.48;59.03
22311;BME280;11323;49.610;11.016;2023-04-29T13:10:55;98088.50;;;17.55;59.01
22311;BME280;11323;49.610;11.016;2023-04-29T13:15:55;98078.53;;;17.50;59.12
22311;BME280;11323;49.610;11.016;2023-04-29T13:20:56;98089.50;;;17.54;58.80
22311;BME280;11323;49.610;11.016;2023-04-29T13:25:57;98089.25;;;17.49;58.82
22311;BME280;11323;49.610;11.016;2023-04-29T13:30:58;98089.88;;;17.51;59.36
22311;BME280;11323;49.610;11.016;2023-04-29T13:35:59;98091.72;;;17.50;59.12
22311;BME280;11323;49.610;11.016;2023-04-29T13:41:00;98093.72;;;17.48;58.80
22311;BME280;11323;49.610;11.016;2023-04-29T13:46:03;98094.88;;;17.45;59.11
22311;BME280;11323;49.610;11.016;2023-04-29T13:51:04;98095.66;;;17.39;59.02
22311;BME280;11323;49.610;11.016;2023-04-29T13:56:06;98106.19;;;17.39;58.78
22311;BME280;11323;49.610;11.016;2023-04-29T14:01:07;98104.75;;;17.37;58.43
22311;BME280;11323;49.610;11.016;2023-04-29T14:06:10;98112.22;;;17.33;59.01
22311;BME280;11323;49.610;11.016;2023-04-29T14:11:11;98104.84;;;17.28;58.89
22311;BME280;11323;49.610;11.016;2023-04-29T14:16:12;98119.06;;;17.27;59.43
22311;BME280;11323;49.610;11.016;2023-04-29T14:21:12;98121.44;;;17.22;59.09
22311;BME280;11323;49.610;11.016;2023-04-29T14:26:13;98126.25;;;17.19;59.90
22311;BME280;11323;49.610;11.016;2023-04-29T14:31:14;98128.25;;;17.17;59.35
22311;BME280;11323;49.610;11.016;2023-04-29T14:36:16;98125.50;;;17.25;59.04
22311;BME280;11323;49.610;11.016;2023-04-29T14:41:19;98125.50;;;17.25;58.93
22311;BME280;11323;49.610;11.016;2023-04-29T14:46:23;98129.97;;;17.24;58.81
22311;BME280;11323;49.610;11.016;2023-04-29T14:51:25;98134.41;;;17.24;59.33
22311;BME280;11323;49.610;11.016;2023-04-29T14:56:40;98129.91;;;17.18;59.31
22311;BME280;11323;49.610;11.016;2023-04-29T15:01:40;98141.50;;;17.23;59.47
22311;BME280;11323;49.610;11.016;2023-04-29T15:06:42;98153.03;;;17.22;58.85
22311;BME280;11323;49.610;11.016;2023-04-29T15:11:43;98144.69;;;17.19;58.77
22311;BME280;11323;49.610;11.016;2023-04-29T15:16:44;98144.94;;;17.24;58.76
22311;BME280;11323;49.610;11.016;2023-04-29T15:21:44;98142.50;;;17.22;59.08
22311;BME280;11323;49.610;11.016;2023-04-29T15:26:51;98153.78;;;17.16;58.69
22311;BME280;11323;49.610;11.016;2023-04-29T15:31:52;98156.97;;;17.11;58.77
22311;BME280;11323;49.610;11.016;2023-04-29T15:36:54;98165.50;;;17.13;59.04
22311;BME280;11323;49.610;11.016;2023-04-29T15:41:57;98165.88;;;17.10;58.82
22311;BME280;11323;49.610;11.016;2023-04-29T15:46:59;98176.66;;;17.16;59.17
22311;BME280;11323;49.610;11.016;2023-04-29T15:52:00;98195.28;;;17.14;59.22
22311;BME280;11323;49.610;11.016;2023-04-29T15:57:04;98180.84;;;17.10;59.22
22311;BME280;11323;49.610;11.016;2023-04-29T16:02:05;98185.56;;;17.14;59.08
22311;BME280;11323;49.610;11.016;2023-04-29T16:07:10;98207.63;;;17.13;58.90
22311;BME280;11323;49.610;11.016;2023-04-29T16:12:14;98200.13;;;17.10;59.14
22311;BME280;11323;49.610;11.016;2023-04-29T16:17:27;98215.91;;;17.10;58.99
22311;BME280;11323;49.610;11.016;2023-04-29T16:22:28;98221.19;;;17.10;59.14
22311;BME280;11323;49.610;11.016;2023-04-29T16:27:30;98215.28;;;17.08;59.26
22311;BME280;11323;49.610;11.016;2023-04-29T16:32:31;98224.19;;;17.07;59.18
22311;BME280;11323;49.610;11.016;2023-04-29T16:37:35;98229.44;;;17.07;59.45
22311;BME280;11323;49.610;11.016;2023-04-29T16:42:36;98234.72;;;17.07;59.08
22311;BME280;11323;49.610;11.016;2023-04-29T16:47:36;98236.69;;;17.05;59.23
22311;BME280;11323;49.610;11.016;2023-04-29T16:52:40;98243.59;;;17.06;58.99
22311;BME280;11323;49.610;11.016;2023-04-29T16:57:41;98235.44;;;17.01;59.22
22311;BME280;11323;49.610;11.016;2023-04-29T17:02:45;98261.19;;;17.06;58.92
22311;BME280;11323;49.610;11.016;2023-04-29T17:07:48;98263.22;;;17.04;58.92
22311;BME280;11323;49.610;11.016;2023-04-29T17:12:54;98255.69;;;17.01;59.05
22311;BME280;11323;49.610;11.016;2023-04-29T17:17:54;98265.22;;;17.02;59.21
22311;BME280;11323;49.610;11.016;2023-04-29T17:22:55;98262.75;;;17.00;58.81
22311;BME280;11323;49.610;11.016;2023-04-29T17:27:55;98265.03;;;17.03;58.88
22311;BME280;11323;49.610;11.016;2023-04-29T17:32:56;98275.56;;;17.03;58.94
22311;BME280;11323;49.610;11.016;2023-04-29T17:37:56;98276.75;;;17.01;58.82
22311;BME280;11323;49.610;11.016;2023-04-29T17:42:56;98276.47;;;16.95;58.78
22311;BME280;11323;49.610;11.016;2023-04-29T17:47:57;98281.56;;;16.97;59.11
22311;BME280;11323;49.610;11.016;2023-04-29T17:52:57;98277.28;;;16.96;58.62
22311;BME280;11323;49.610;11.016;2023-04-29T17:57:58;98278.94;;;16.97;58.73
22311;BME280;11323;49.610;11.016;2023-04-29T18:02:58;98288.81;;;16.95;58.76
22311;BME280;11323;49.610;11.016;2023-04-29T18:07:58;98299.81;;;16.98;58.81
22311;BME280;11323;49.610;11.016;2023-04-29T18:12:59;98296.72;;;16.95;58.63
22311;BME280;11323;49.610;11.016;2023-04-29T18:17:59;98311.03;;;16.92;59.05
22311;BME280;11323;49.610;11.016;2023-04-29T18:22:59;98313.31;;;16.95;59.26
22311;BME280;11323;49.610;11.016;2023-04-29T18:28:00;98322.16;;;17.03;59.38
22311;BME280;11323;49.610;11.016;2023-04-29T18:33:01;98319.41;;;16.96;59.10
22311;BME280;11323;49.610;11.016;2023-04-29T18:38:01;98317.09;;;16.93;58.75
22311;BME280;11323;49.610;11.016;2023-04-29T18:43:02;98324.03;;;16.94;58.42
22311;BME280;11323;49.610;11.016;2023-04-29T18:48:03;98337.19;;;16.94;58.91
22311;BME280;11323;49.610;11.016;2023-04-29T18:53:06;98342.91;;;16.97;59.52
22311;BME280;11323;49.610;11.016;2023-04-29T18:58:06;98346.00;;;17.01;59.98
22311;BME280;11323;49.610;11.016;2023-04-29T19:03:08;98342.56;;;17.01;59.58
22311;BME280;11323;49.610;11.016;2023-04-29T19:08:08;98358.28;;;17.09;59.49
22311;BME280;11323;49.610;11.016;2023-04-29T19:13:09;98368.09;;;17.15;59.65
22311;BME280;11323;49.610;11.016;2023-04-29T19:18:10;98369.53;;;17.18;59.80
22311;BME280;11323;49.610;11.016;2023-04-29T19:23:10;98369.00;;;17.22;59.66
22311;BME280;11323;49.610;11.016;2023-04-29T19:28:11;98375.72;;;17.25;59.63
22311;BME280;11323;49.610;11.016;2023-04-29T19:33:11;98384.91;;;17.29;59.78
22311;BME280;11323;49.610;11.016;2023-04-29T19:38:12;98378.78;;;17.28;59.60
22311;BME280;11323;49.610;11.016;2023-04-29T19:43:13;98372.38;;;17.31;59.78
22311;BME280;11323;49.610;11.016;2023-04-29T19:48:13;98384.53;;;17.32;59.57
22311;BME280;11323;49.610;11.016;2023-04-29T19:53:14;98378.63;;;17.30;59.49
22311;BME280;11323;49.610;11.016;2023-04-29T19:58:14;98387.06;;;17.40;60.34
22311;BME280;11323;49.610;11.016;2023-04-29T20:03:15;98387.53;;;17.44;60.09
22311;BME280;11323;49.610;11.016;2023-04-29T20:08:16;98388.97;;;17.47;59.84
22311;BME280;11323;49.610;11.016;2023-04-29T20:13:16;98377.81;;;17.44;60.58
22311;BME280;11323;49.610;11.016;2023-04-29T20:18:16;98382.69;;;17.48;59.99
22311;BME280;11323;49.610;11.016;2023-04-29T20:23:17;98397.41;;;17.57;59.85
22311;BME280;11323;49.610;11.016;2023-04-29T20:28:17;98394.63;;;17.58;60.00
22311;BME280;11323;49.610;11.016;2023-04-29T20:33:18;98391.78;;;17.60;59.35
22311;BME280;11323;49.610;11.016;2023-04-29T20:38:18;98389.03;;;17.68;60.26
22311;BME280;11323;49.610;11.016;2023-04-29T20:43:18;98398.22;;;17.72;60.21
22311;BME280;11323;49.610;11.016;2023-04-29T20:48:19;98397.41;;;17.72;60.30
22311;BME280;11323;49.610;11.016;2023-04-29T20:53:20;98408.56;;;17.74;59.54
22311;BME280;11323;49.610;11.016;2023-04-29T20:58:21;98411.13;;;17.82;60.21
22311;BME280;11323;49.610;11.016;2023-04-29T21:03:22;98411.94;;;17.83;59.24
22311;BME280;11323;49.610;11.016;2023-04-29T21:08:25;98401.38;;;17.83;58.90
22311;BME280;11323;49.610;11.016;2023-04-29T21:13:25;98410.81;;;17.92;59.27
22311;BME280;11323;49.610;11.016;2023-04-29T21:18:25;98416.09;;;17.92;58.94
22311;BME280;11323;49.610;11.016;2023-04-29T21:23:26;98432.56;;;17.94;59.23
22311;BME280;11323;49.610;11.016;2023-04-29T21:28:26;98425.56;;;18.01;58.20
22311;BME280;11323;49.610;11.016;2023-04-29T21:33:27;98433.94;;;18.05;58.87
22311;BME280;11323;49.610;11.016;2023-04-29T21:38:27;98413.84;;;18.04;58.54
22311;BME280;11323;49.610;11.016;2023-04-29T21:43:28;98424.63;;;18.09;57.90
22311;BME280;11323;49.610;11.016;2023-04-29T21:48:28;98430.50;;;17.74;56.85
22311;BME280;11323;49.610;11.016;2023-04-29T21:53:28;98428.94;;;17.80;57.07
22311;BME280;11323;49.610;11.016;2023-04-29T21:58:29;98432.84;;;17.69;57.64
22311;BME280;11323;49.610;11.016;2023-04-29T22:03:29;98434.78;;;17.60;58.16
22311;BME280;11323;49.610;11.016;2023-04-29T22:08:30;98438.75;;;17.71;58.27
22311;BME280;11323;49.610;11.016;2023-04-29T22:13:30;98451.84;;;17.80;58.87
22311;BME280;11323;49.610;11.016;2023-04-29T22:18:31;98451.03;;;17.79;58.43
22311;BME280;11323;49.610;11.016;2023-04-29T22:23:31;98444.56;;;17.82;58.52
22311;BME280;11323;49.610;11.016;2023-04-29T22:28:31;98457.75;;;17.82;58.61
22311;BME280;11323;49.610;11.016;2023-04-29T22:33:32;98451.66;;;17.81;58.90
22311;BME280;11323;49.610;11.016;2023-04-29T22:38:34;98449.19;;;17.80;59.07
22311;BME280;11323;49.610;11.016;2023-04-29T22:43:36;98453.47;;;17.81;58.82
22311;BME280;11323;49.610;11.016;2023-04-29T22:48:37;98446.75;;;17.78;58.91
22311;BME280;11323;49.610;11.016;2023-04-29T22:53:37;98463.41;;;17.79;58.59
22311;BME280;11323;49.610;11.016;2023-04-29T22:58:38;98456.50;;;17.78;58.72
22311;BME280;11323;49.610;11.016;2023-04-29T23:03:39;98466.41;;;17.75;58.90
22311;BME280;11323;49.610;11.016;2023-04-29T23:08:40;98459.50;;;17.74;58.84
22311;BME280;11323;49.610;11.016;2023-04-29T23:13:40;98462.31;;;17.73;58.93
22311;BME280;11323;49.610;11.016;2023-04-29T23:18:40;98458.84;;;17.72;58.84
22311;BME280;11323;49.610;11.016;2023-04-29T23:23:41;98457.56;;;17.68;58.80
22311;BME280;11323;49.610;11.016;2023-04-29T23:28:41;98470.59;;;17.70;58.87
22311;BME280;11323;49.610;11.016;2023-04-29T23:33:41;98469.75;;;17.69;59.10
22311;BME280;11323;49.610;11.016;2023-04-29T23:38:42;98473.22;;;17.70;58.88
22311;BME280;11323;49.610;11.016;2023-04-29T23:43:42;98480.28;;;17.69;58.88
22311;BME280;11323;49.610;11.016;2023-04-29T23:48:43;98470.13;;;17.66;58.75
22311;BME280;11323;49.610;11.016;2023-04-29T23:53:43;98472.78;;;17.66;59.08
22311;BME280;11323;49.610;11.016;2023-04-29T23:58:43;98464.88;;;17.66;59.02
